sensor_id;sensor_type;location;lat;lon;timestamp;pressure;altitude;pressure_sealevel;temperature
16956;BMP180;8594;52.052;8.354;2022-08-14T00:01:18;100517.00;;;27.00
16956;BMP180;8594;52.052;8.354;2022-08-14T00:03:45;100516.00;;;27.00
16956;BMP180;8594;52.052;8.354;2022-08-14T00:06:12;100515.00;;;27.10
16956;BMP180;8594;52.052;8.354;2022-08-14T00:08:39;100512.00;;;27.10
16956;BMP180;8594;52.052;8.354;2022-08-14T00:11:05;100513.00;;;27.20
16956;BMP180;8594;52.052;8.354;2022-08-14T00:13:32;100517.00;;;27.20
16956;BMP180;8594;52.052;8.354;2022-08-14T00:16:01;100508.00;;;27.20
16956;BMP180;8594;52.052;8.354;2022-08-14T00:18:28;100507.00;;;27.20
16956;BMP180;8594;52.052;8.354;2022-08-14T00:20:56;100506.00;;;27.10
16956;BMP180;8594;52.052;8.354;2022-08-14T00:23:23;100501.00;;;27.00
16956;BMP180;8594;52.052;8.354;2022-08-14T00:25:53;100494.00;;;27.00
16956;BMP180;8594;52.052;8.354;2022-08-14T00:28:20;100503.00;;;27.00
16956;BMP180;8594;52.052;8.354;2022-08-14T00:30:52;100493.00;;;27.00
16956;BMP180;8594;52.052;8.354;2022-08-14T00:33:23;100496.00;;;26.70
16956;BMP180;8594;52.052;8.354;2022-08-14T00:35:50;100492.00;;;26.80
16956;BMP180;8594;52.052;8.354;2022-08-14T00:38:18;100496.00;;;26.90
16956;BMP180;8594;52.052;8.354;2022-08-14T00:40:46;100482.00;;;26.90
16956;BMP180;8594;52.052;8.354;2022-08-14T00:43:13;100490.00;;;27.00
16956;BMP180;8594;52.052;8.354;2022-08-14T00:45:41;100491.00;;;27.00
16956;BMP180;8594;52.052;8.354;2022-08-14T00:48:08;100486.00;;;27.00
16956;BMP180;8594;52.052;8.354;2022-08-14T00:50:37;100482.00;;;26.70
16956;BMP180;8594;52.052;8.354;2022-08-14T00:53:05;100477.00;;;26.90
16956;BMP180;8594;52.052;8.354;2022-08-14T00:55:35;100478.00;;;27.00
16956;BMP180;8594;52.052;8.354;2022-08-14T00:58:06;100477.00;;;27.00
16956;BMP180;8594;52.052;8.354;2022-08-14T01:00:51;100476.00;;;26.90
16956;BMP180;8594;52.052;8.354;2022-08-14T01:03:20;100469.00;;;26.90
16956;BMP180;8594;52.052;8.354;2022-08-14T01:05:51;100471.00;;;27.10
16956;BMP180;8594;52.052;8.354;2022-08-14T01:08:29;100469.00;;;26.50
16956;BMP180;8594;52.052;8.354;2022-08-14T01:10:58;100469.00;;;26.90
16956;BMP180;8594;52.052;8.354;2022-08-14T01:13:28;100461.00;;;26.90
16956;BMP180;8594;52.052;8.354;2022-08-14T01:16:00;100465.00;;;27.00
16956;BMP180;8594;52.052;8.354;2022-08-14T01:18:30;100460.00;;;27.10
16956;BMP180;8594;52.052;8.354;2022-08-14T01:21:24;100452.00;;;27.10
16956;BMP180;8594;52.052;8.354;2022-08-14T01:23:57;100444.00;;;27.10
16956;BMP180;8594;52.052;8.354;2022-08-14T01:26:26;100446.00;;;27.20
16956;BMP180;8594;52.052;8.354;2022-08-14T01:28:57;100444.00;;;26.60
16956;BMP180;8594;52.052;8.354;2022-08-14T01:31:28;100443.00;;;27.00
16956;BMP180;8594;52.052;8.354;2022-08-14T01:33:58;100451.00;;;27.10
16956;BMP180;8594;52.052;8.354;2022-08-14T01:36:29;100440.00;;;27.00
16956;BMP180;8594;52.052;8.354;2022-08-14T01:39:06;100435.00;;;27.20
16956;BMP180;8594;52.052;8.354;2022-08-14T01:41:35;100432.00;;;27.30
16956;BMP180;8594;52.052;8.354;2022-08-14T01:44:07;100434.00;;;27.40
16956;BMP180;8594;52.052;8.354;2022-08-14T01:46:39;100430.00;;;27.40
16956;BMP180;8594;52.052;8.354;2022-08-14T01:49:10;100432.00;;;27.30
16956;BMP180;8594;52.052;8.354;2022-08-14T01:51:41;100431.00;;;27.40
16956;BMP180;8594;52.052;8.354;2022-08-14T01:54:11;100428.00;;;27.20
16956;BMP180;8594;52.052;8.354;2022-08-14T01:56:39;100423.00;;;27.10
16956;BMP180;8594;52.052;8.354;2022-08-14T01:59:19;100426.00;;;27.10
16956;BMP180;8594;52.052;8.354;2022-08-14T02:01:47;100416.00;;;27.00
16956;BMP180;8594;52.052;8.354;2022-08-14T02:04:17;100413.00;;;27.00
16956;BMP180;8594;52.052;8.354;2022-08-14T02:06:46;100407.00;;;27.00
16956;BMP180;8594;52.052;8.354;2022-08-14T02:09:15;100412.00;;;27.00
16956;BMP180;8594;52.052;8.354;2022-08-14T02:11:43;100403.00;;;26.50
16956;BMP180;8594;52.052;8.354;2022-08-14T02:14:12;100408.00;;;26.40
16956;BMP180;8594;52.052;8.354;2022-08-14T02:16:42;100411.00;;;26.20
16956;BMP180;8594;52.052;8.354;2022-08-14T02:19:13;100404.00;;;25.80
16956;BMP180;8594;52.052;8.354;2022-08-14T02:21:41;100408.00;;;25.80
16956;BMP180;8594;52.052;8.354;2022-08-14T02:24:11;100405.00;;;25.90
16956;BMP180;8594;52.052;8.354;2022-08-14T02:26:43;100403.00;;;25.70
16956;BMP180;8594;52.052;8.354;2022-08-14T02:29:15;100396.00;;;25.50
16956;BMP180;8594;52.052;8.354;2022-08-14T02:31:46;100392.00;;;25.40
16956;BMP180;8594;52.052;8.354;2022-08-14T02:34:18;100394.00;;;25.40
16956;BMP180;8594;52.052;8.354;2022-08-14T02:36:48;100395.00;;;25.40
16956;BMP180;8594;52.052;8.354;2022-08-14T02:39:18;100392.00;;;25.20
16956;BMP180;8594;52.052;8.354;2022-08-14T02:41:45;100392.00;;;25.10
16956;BMP180;8594;52.052;8.354;2022-08-14T02:44:13;100384.00;;;25.10
16956;BMP180;8594;52.052;8.354;2022-08-14T02:46:44;100385.00;;;25.10
16956;BMP180;8594;52.052;8.354;2022-08-14T02:49:11;100380.00;;;25.00
16956;BMP180;8594;52.052;8.354;2022-08-14T02:51:38;100375.00;;;24.70
16956;BMP180;8594;52.052;8.354;2022-08-14T02:54:08;100369.00;;;25.00
16956;BMP180;8594;52.052;8.354;2022-08-14T02:56:36;100374.00;;;25.00
16956;BMP180;8594;52.052;8.354;2022-08-14T02:59:06;100365.00;;;25.20
16956;BMP180;8594;52.052;8.354;2022-08-14T03:01:35;100356.00;;;24.90
16956;BMP180;8594;52.052;8.354;2022-08-14T03:04:03;100360.00;;;25.30
16956;BMP180;8594;52.052;8.354;2022-08-14T03:06:31;100357.00;;;24.90
16956;BMP180;8594;52.052;8.354;2022-08-14T03:08:58;100364.00;;;25.10
16956;BMP180;8594;52.052;8.354;2022-08-14T03:11:25;100364.00;;;25.20
16956;BMP180;8594;52.052;8.354;2022-08-14T03:13:53;100359.00;;;25.30
16956;BMP180;8594;52.052;8.354;2022-08-14T03:16:25;100355.00;;;25.00
16956;BMP180;8594;52.052;8.354;2022-08-14T03:18:54;100354.00;;;25.10
16956;BMP180;8594;52.052;8.354;2022-08-14T03:21:25;100350.00;;;25.10
16956;BMP180;8594;52.052;8.354;2022-08-14T03:23:53;100341.00;;;24.90
16956;BMP180;8594;52.052;8.354;2022-08-14T03:26:27;100331.00;;;24.80
16956;BMP180;8594;52.052;8.354;2022-08-14T03:28:56;100333.00;;;24.60
16956;BMP180;8594;52.052;8.354;2022-08-14T03:31:23;100325.00;;;24.80
16956;BMP180;8594;52.052;8.354;2022-08-14T03:33:50;100326.00;;;25.00
16956;BMP180;8594;52.052;8.354;2022-08-14T03:36:19;100332.00;;;24.90
16956;BMP180;8594;52.052;8.354;2022-08-14T03:38:49;100324.00;;;24.60
16956;BMP180;8594;52.052;8.354;2022-08-14T03:41:21;100315.00;;;24.80
16956;BMP180;8594;52.052;8.354;2022-08-14T03:43:51;100324.00;;;24.60
16956;BMP180;8594;52.052;8.354;2022-08-14T03:46:21;100309.00;;;24.60
16956;BMP180;8594;52.052;8.354;2022-08-14T03:48:49;100307.00;;;24.60
16956;BMP180;8594;52.052;8.354;2022-08-14T03:51:15;100305.00;;;24.40
16956;BMP180;8594;52.052;8.354;2022-08-14T03:53:44;100301.00;;;24.80
16956;BMP180;8594;52.052;8.354;2022-08-14T03:56:15;100299.00;;;24.90
16956;BMP180;8594;52.052;8.354;2022-08-14T03:58:49;100304.00;;;24.90
16956;BMP180;8594;52.052;8.354;2022-08-14T04:01:19;100300.00;;;24.90
16956;BMP180;8594;52.052;8.354;2022-08-14T04:03:48;100288.00;;;24.60
16956;BMP180;8594;52.052;8.354;2022-08-14T04:06:17;100293.00;;;24.80
16956;BMP180;8594;52.052;8.354;2022-08-14T04:08:46;100299.00;;;24.80
16956;BMP180;8594;52.052;8.354;2022-08-14T04:11:15;100290.00;;;24.60
16956;BMP180;8594;52.052;8.354;2022-08-14T04:13:43;100290.00;;;24.60
16956;BMP180;8594;52.052;8.354;2022-08-14T04:16:14;100288.00;;;24.20
16956;BMP180;8594;52.052;8.354;2022-08-14T04:18:43;100279.00;;;24.60
16956;BMP180;8594;52.052;8.354;2022-08-14T04:21:13;100284.00;;;24.20
16956;BMP180;8594;52.052;8.354;2022-08-14T04:23:41;100287.00;;;24.30
16956;BMP180;8594;52.052;8.354;2022-08-14T04:26:10;100285.00;;;24.10
16956;BMP180;8594;52.052;8.354;2022-08-14T04:28:40;100283.00;;;24.30
16956;BMP180;8594;52.052;8.354;2022-08-14T04:31:07;100282.00;;;24.20
16956;BMP180;8594;52.052;8.354;2022-08-14T04:33:34;100284.00;;;24.10
16956;BMP180;8594;52.052;8.354;2022-08-14T04:36:02;100281.00;;;24.10
16956;BMP180;8594;52.052;8.354;2022-08-14T04:38:30;100281.00;;;24.40
16956;BMP180;8594;52.052;8.354;2022-08-14T04:41:15;100279.00;;;24.40
16956;BMP180;8594;52.052;8.354;2022-08-14T04:43:59;100285.00;;;24.50
16956;BMP180;8594;52.052;8.354;2022-08-14T04:46:27;100279.00;;;24.30
16956;BMP180;8594;52.052;8.354;2022-08-14T04:48:53;100280.00;;;24.50
16956;BMP180;8594;52.052;8.354;2022-08-14T04:51:21;100277.00;;;24.40
16956;BMP180;8594;52.052;8.354;2022-08-14T04:53:52;100272.00;;;24.40
16956;BMP180;8594;52.052;8.354;2022-08-14T04:56:21;100271.00;;;24.40
16956;BMP180;8594;52.052;8.354;2022-08-14T04:58:51;100280.00;;;24.60
16956;BMP180;8594;52.052;8.354;2022-08-14T05:01:23;100280.00;;;24.60
16956;BMP180;8594;52.052;8.354;2022-08-14T05:03:51;100282.00;;;24.60
16956;BMP180;8594;52.052;8.354;2022-08-14T05:06:19;100283.00;;;24.50
16956;BMP180;8594;52.052;8.354;2022-08-14T05:08:47;100274.00;;;24.80
16956;BMP180;8594;52.052;8.354;2022-08-14T05:11:16;100276.00;;;25.10
16956;BMP180;8594;52.052;8.354;2022-08-14T05:13:43;100278.00;;;25.20
16956;BMP180;8594;52.052;8.354;2022-08-14T05:16:11;100275.00;;;25.50
16956;BMP180;8594;52.052;8.354;2022-08-14T05:18:38;100269.00;;;25.60
16956;BMP180;8594;52.052;8.354;2022-08-14T05:21:08;100269.00;;;26.20
16956;BMP180;8594;52.052;8.354;2022-08-14T05:23:38;100265.00;;;26.20
16956;BMP180;8594;52.052;8.354;2022-08-14T05:26:05;100266.00;;;26.50
16956;BMP180;8594;52.052;8.354;2022-08-14T05:28:41;100271.00;;;26.50
16956;BMP180;8594;52.052;8.354;2022-08-14T05:31:12;100274.00;;;26.70
16956;BMP180;8594;52.052;8.354;2022-08-14T05:33:40;100277.00;;;26.70
16956;BMP180;8594;52.052;8.354;2022-08-14T05:36:10;100280.00;;;27.20
16956;BMP180;8594;52.052;8.354;2022-08-14T05:38:40;100281.00;;;27.00
16956;BMP180;8594;52.052;8.354;2022-08-14T05:41:10;100272.00;;;27.10
16956;BMP180;8594;52.052;8.354;2022-08-14T05:43:40;100271.00;;;27.60
16956;BMP180;8594;52.052;8.354;2022-08-14T05:46:09;100260.00;;;28.10
16956;BMP180;8594;52.052;8.354;2022-08-14T05:48:36;100261.00;;;28.40
16956;BMP180;8594;52.052;8.354;2022-08-14T05:51:04;100261.00;;;28.50
16956;BMP180;8594;52.052;8.354;2022-08-14T05:53:31;100260.00;;;28.70
16956;BMP180;8594;52.052;8.354;2022-08-14T05:55:58;100255.00;;;28.60
16956;BMP180;8594;52.052;8.354;2022-08-14T05:58:25;100254.00;;;28.70
16956;BMP180;8594;52.052;8.354;2022-08-14T06:00:53;100263.00;;;29.30
16956;BMP180;8594;52.052;8.354;2022-08-14T06:03:22;100264.00;;;29.60
16956;BMP180;8594;52.052;8.354;2022-08-14T06:05:52;100264.00;;;29.50
16956;BMP180;8594;52.052;8.354;2022-08-14T06:08:23;100266.00;;;29.70
16956;BMP180;8594;52.052;8.354;2022-08-14T06:10:53;100260.00;;;29.40
16956;BMP180;8594;52.052;8.354;2022-08-14T06:13:21;100259.00;;;29.70
16956;BMP180;8594;52.052;8.354;2022-08-14T06:15:49;100264.00;;;30.10
16956;BMP180;8594;52.052;8.354;2022-08-14T06:18:17;100268.00;;;30.40
16956;BMP180;8594;52.052;8.354;2022-08-14T06:20:44;100267.00;;;30.70
16956;BMP180;8594;52.052;8.354;2022-08-14T06:23:11;100270.00;;;30.50
16956;BMP180;8594;52.052;8.354;2022-08-14T06:25:38;100270.00;;;31.10
16956;BMP180;8594;52.052;8.354;2022-08-14T06:28:05;100263.00;;;31.10
16956;BMP180;8594;52.052;8.354;2022-08-14T06:30:33;100258.00;;;30.50
16956;BMP180;8594;52.052;8.354;2022-08-14T06:33:00;100252.00;;;30.80
16956;BMP180;8594;52.052;8.354;2022-08-14T06:35:28;100260.00;;;30.40
16956;BMP180;8594;52.052;8.354;2022-08-14T06:37:58;100249.00;;;31.20
16956;BMP180;8594;52.052;8.354;2022-08-14T06:40:28;100257.00;;;31.20
16956;BMP180;8594;52.052;8.354;2022-08-14T06:42:58;100256.00;;;31.20
16956;BMP180;8594;52.052;8.354;2022-08-14T06:45:26;100258.00;;;30.90
16956;BMP180;8594;52.052;8.354;2022-08-14T06:47:53;100263.00;;;30.70
16956;BMP180;8594;52.052;8.354;2022-08-14T06:50:22;100263.00;;;30.70
16956;BMP180;8594;52.052;8.354;2022-08-14T06:52:51;100259.00;;;30.80
16956;BMP180;8594;52.052;8.354;2022-08-14T06:55:18;100261.00;;;30.60
16956;BMP180;8594;52.052;8.354;2022-08-14T06:57:47;100250.00;;;30.90
16956;BMP180;8594;52.052;8.354;2022-08-14T07:00:18;100255.00;;;31.10
16956;BMP180;8594;52.052;8.354;2022-08-14T07:02:45;100249.00;;;31.60
16956;BMP180;8594;52.052;8.354;2022-08-14T07:05:30;100261.00;;;32.00
16956;BMP180;8594;52.052;8.354;2022-08-14T07:08:16;100262.00;;;32.10
16956;BMP180;8594;52.052;8.354;2022-08-14T07:10:44;100256.00;;;32.20
16956;BMP180;8594;52.052;8.354;2022-08-14T07:13:12;100257.00;;;32.60
16956;BMP180;8594;52.052;8.354;2022-08-14T07:15:40;100259.00;;;32.20
16956;BMP180;8594;52.052;8.354;2022-08-14T07:18:08;100256.00;;;32.80
16956;BMP180;8594;52.052;8.354;2022-08-14T07:20:37;100250.00;;;33.00
16956;BMP180;8594;52.052;8.354;2022-08-14T07:23:07;100241.00;;;32.90
16956;BMP180;8594;52.052;8.354;2022-08-14T07:25:39;100254.00;;;32.70
16956;BMP180;8594;52.052;8.354;2022-08-14T07:28:11;100250.00;;;32.60
16956;BMP180;8594;52.052;8.354;2022-08-14T07:30:40;100250.00;;;32.50
16956;BMP180;8594;52.052;8.354;2022-08-14T07:33:07;100251.00;;;32.10
16956;BMP180;8594;52.052;8.354;2022-08-14T07:35:36;100245.00;;;31.90
16956;BMP180;8594;52.052;8.354;2022-08-14T07:38:03;100239.00;;;32.50
16956;BMP180;8594;52.052;8.354;2022-08-14T07:40:30;100236.00;;;32.10
16956;BMP180;8594;52.052;8.354;2022-08-14T07:42:58;100239.00;;;32.50
16956;BMP180;8594;52.052;8.354;2022-08-14T07:45:25;100232.00;;;32.60
16956;BMP180;8594;52.052;8.354;2022-08-14T07:47:53;100226.00;;;33.00
16956;BMP180;8594;52.052;8.354;2022-08-14T07:50:23;100241.00;;;32.90
16956;BMP180;8594;52.052;8.354;2022-08-14T07:52:50;100239.00;;;33.20
16956;BMP180;8594;52.052;8.354;2022-08-14T07:55:18;100235.00;;;33.50
16956;BMP180;8594;52.052;8.354;2022-08-14T07:57:46;100241.00;;;33.00
16956;BMP180;8594;52.052;8.354;2022-08-14T08:00:17;100231.00;;;32.30
16956;BMP180;8594;52.052;8.354;2022-08-14T08:02:49;100233.00;;;32.90
16956;BMP180;8594;52.052;8.354;2022-08-14T08:05:17;100239.00;;;33.00
16956;BMP180;8594;52.052;8.354;2022-08-14T08:07:47;100237.00;;;32.50
16956;BMP180;8594;52.052;8.354;2022-08-14T08:10:18;100234.00;;;33.00
16956;BMP180;8594;52.052;8.354;2022-08-14T08:12:59;100231.00;;;32.80
16956;BMP180;8594;52.052;8.354;2022-08-14T08:15:30;100226.00;;;33.80
16956;BMP180;8594;52.052;8.354;2022-08-14T08:17:59;100235.00;;;33.70
16956;BMP180;8594;52.052;8.354;2022-08-14T08:20:32;100234.00;;;33.20
16956;BMP180;8594;52.052;8.354;2022-08-14T08:23:01;100227.00;;;33.50
16956;BMP180;8594;52.052;8.354;2022-08-14T08:25:31;100228.00;;;33.60
16956;BMP180;8594;52.052;8.354;2022-08-14T08:28:02;100228.00;;;33.10
16956;BMP180;8594;52.052;8.354;2022-08-14T08:30:32;100234.00;;;32.90
16956;BMP180;8594;52.052;8.354;2022-08-14T08:33:01;100230.00;;;32.40
16956;BMP180;8594;52.052;8.354;2022-08-14T08:35:30;100222.00;;;32.40
16956;BMP180;8594;52.052;8.354;2022-08-14T08:38:02;100225.00;;;32.30
16956;BMP180;8594;52.052;8.354;2022-08-14T08:40:32;100222.00;;;32.20
16956;BMP180;8594;52.052;8.354;2022-08-14T08:43:03;100210.00;;;33.30
16956;BMP180;8594;52.052;8.354;2022-08-14T08:45:34;100203.00;;;32.60
16956;BMP180;8594;52.052;8.354;2022-08-14T08:48:03;100199.00;;;32.80
16956;BMP180;8594;52.052;8.354;2022-08-14T08:50:33;100193.00;;;32.50
16956;BMP180;8594;52.052;8.354;2022-08-14T08:53:03;100200.00;;;32.70
16956;BMP180;8594;52.052;8.354;2022-08-14T08:55:34;100196.00;;;32.50
16956;BMP180;8594;52.052;8.354;2022-08-14T08:58:06;100178.00;;;32.90
16956;BMP180;8594;52.052;8.354;2022-08-14T09:00:39;100174.00;;;33.00
16956;BMP180;8594;52.052;8.354;2022-08-14T09:03:10;100176.00;;;33.50
16956;BMP180;8594;52.052;8.354;2022-08-14T09:05:50;100178.00;;;33.50
16956;BMP180;8594;52.052;8.354;2022-08-14T09:08:20;100173.00;;;32.70
16956;BMP180;8594;52.052;8.354;2022-08-14T09:10:47;100161.00;;;33.30
16956;BMP180;8594;52.052;8.354;2022-08-14T09:13:15;100167.00;;;33.40
16956;BMP180;8594;52.052;8.354;2022-08-14T09:15:46;100160.00;;;32.90
16956;BMP180;8594;52.052;8.354;2022-08-14T09:18:16;100160.00;;;33.10
16956;BMP180;8594;52.052;8.354;2022-08-14T09:20:47;100158.00;;;32.20
16956;BMP180;8594;52.052;8.354;2022-08-14T09:23:14;100152.00;;;32.50
16956;BMP180;8594;52.052;8.354;2022-08-14T09:25:44;100147.00;;;32.40
16956;BMP180;8594;52.052;8.354;2022-08-14T09:28:14;100143.00;;;32.80
16956;BMP180;8594;52.052;8.354;2022-08-14T09:30:48;100140.00;;;32.60
16956;BMP180;8594;52.052;8.354;2022-08-14T09:37:16;100153.00;;;32.20
16956;BMP180;8594;52.052;8.354;2022-08-14T09:40:00;100156.00;;;32.40
16956;BMP180;8594;52.052;8.354;2022-08-14T09:42:43;100143.00;;;32.30
16956;BMP180;8594;52.052;8.354;2022-08-14T09:45:16;100140.00;;;32.60
16956;BMP180;8594;52.052;8.354;2022-08-14T09:47:47;100139.00;;;32.10
16956;BMP180;8594;52.052;8.354;2022-08-14T09:50:22;100137.00;;;31.90
16956;BMP180;8594;52.052;8.354;2022-08-14T09:52:52;100139.00;;;31.90
16956;BMP180;8594;52.052;8.354;2022-08-14T09:55:23;100136.00;;;32.20
16956;BMP180;8594;52.052;8.354;2022-08-14T09:57:51;100133.00;;;32.50
16956;BMP180;8594;52.052;8.354;2022-08-14T10:00:35;100135.00;;;31.60
16956;BMP180;8594;52.052;8.354;2022-08-14T10:03:08;100126.00;;;32.10
16956;BMP180;8594;52.052;8.354;2022-08-14T10:05:37;100134.00;;;32.50
16956;BMP180;8594;52.052;8.354;2022-08-14T10:08:15;100122.00;;;32.90
16956;BMP180;8594;52.052;8.354;2022-08-14T10:10:43;100128.00;;;32.70
16956;BMP180;8594;52.052;8.354;2022-08-14T10:13:21;100121.00;;;33.20
16956;BMP180;8594;52.052;8.354;2022-08-14T10:15:48;100117.00;;;32.60
16956;BMP180;8594;52.052;8.354;2022-08-14T10:18:18;100115.00;;;32.90
16956;BMP180;8594;52.052;8.354;2022-08-14T10:20:54;100122.00;;;32.40
16956;BMP180;8594;52.052;8.354;2022-08-14T10:23:25;100123.00;;;32.40
16956;BMP180;8594;52.052;8.354;2022-08-14T10:26:01;100123.00;;;32.50
16956;BMP180;8594;52.052;8.354;2022-08-14T10:28:38;100110.00;;;32.70
16956;BMP180;8594;52.052;8.354;2022-08-14T10:31:17;100112.00;;;33.00
16956;BMP180;8594;52.052;8.354;2022-08-14T10:34:00;100102.00;;;33.00
16956;BMP180;8594;52.052;8.354;2022-08-14T10:36:30;100093.00;;;33.30
16956;BMP180;8594;52.052;8.354;2022-08-14T10:39:02;100099.00;;;33.70
16956;BMP180;8594;52.052;8.354;2022-08-14T10:41:39;100095.00;;;32.20
16956;BMP180;8594;52.052;8.354;2022-08-14T10:44:10;100088.00;;;32.90
16956;BMP180;8594;52.052;8.354;2022-08-14T10:46:44;100091.00;;;33.10
16956;BMP180;8594;52.052;8.354;2022-08-14T10:49:22;100086.00;;;33.20
16956;BMP180;8594;52.052;8.354;2022-08-14T10:52:01;100079.00;;;33.50
16956;BMP180;8594;52.052;8.354;2022-08-14T10:54:37;100082.00;;;32.90
16956;BMP180;8594;52.052;8.354;2022-08-14T10:57:18;100070.00;;;32.70
16956;BMP180;8594;52.052;8.354;2022-08-14T10:59:49;100074.00;;;32.70
16956;BMP180;8594;52.052;8.354;2022-08-14T11:02:19;100056.00;;;32.90
16956;BMP180;8594;52.052;8.354;2022-08-14T11:05:05;100053.00;;;32.90
16956;BMP180;8594;52.052;8.354;2022-08-14T11:07:34;100046.00;;;32.80
16956;BMP180;8594;52.052;8.354;2022-08-14T11:10:07;100048.00;;;33.10
16956;BMP180;8594;52.052;8.354;2022-08-14T11:12:42;100048.00;;;33.80
16956;BMP180;8594;52.052;8.354;2022-08-14T11:15:16;100061.00;;;33.90
16956;BMP180;8594;52.052;8.354;2022-08-14T11:17:44;100057.00;;;33.40
16956;BMP180;8594;52.052;8.354;2022-08-14T11:20:15;100049.00;;;33.80
16956;BMP180;8594;52.052;8.354;2022-08-14T11:22:43;100048.00;;;34.90
16956;BMP180;8594;52.052;8.354;2022-08-14T11:25:13;100054.00;;;34.40
16956;BMP180;8594;52.052;8.354;2022-08-14T11:27:43;100053.00;;;34.70
16956;BMP180;8594;52.052;8.354;2022-08-14T11:30:15;100039.00;;;35.30
16956;BMP180;8594;52.052;8.354;2022-08-14T11:32:44;100041.00;;;34.60
16956;BMP180;8594;52.052;8.354;2022-08-14T11:35:16;100042.00;;;34.00
16956;BMP180;8594;52.052;8.354;2022-08-14T11:37:55;100032.00;;;34.80
16956;BMP180;8594;52.052;8.354;2022-08-14T11:40:26;100031.00;;;34.30
16956;BMP180;8594;52.052;8.354;2022-08-14T11:42:54;100016.00;;;35.10
16956;BMP180;8594;52.052;8.354;2022-08-14T11:45:23;100000.00;;;35.30
16956;BMP180;8594;52.052;8.354;2022-08-14T11:47:52;100017.00;;;34.40
16956;BMP180;8594;52.052;8.354;2022-08-14T11:50:24;100010.00;;;35.70
16956;BMP180;8594;52.052;8.354;2022-08-14T11:52:51;100003.00;;;35.80
16956;BMP180;8594;52.052;8.354;2022-08-14T11:55:20;100005.00;;;35.80
16956;BMP180;8594;52.052;8.354;2022-08-14T11:57:58;99994.00;;;35.80
16956;BMP180;8594;52.052;8.354;2022-08-14T12:00:26;99994.00;;;35.70
16956;BMP180;8594;52.052;8.354;2022-08-14T12:02:55;99989.00;;;35.90
16956;BMP180;8594;52.052;8.354;2022-08-14T12:05:33;99995.00;;;36.40
16956;BMP180;8594;52.052;8.354;2022-08-14T12:08:02;100001.00;;;35.80
16956;BMP180;8594;52.052;8.354;2022-08-14T12:10:31;99996.00;;;36.80
16956;BMP180;8594;52.052;8.354;2022-08-14T12:13:10;100013.00;;;34.80
16956;BMP180;8594;52.052;8.354;2022-08-14T12:15:39;99991.00;;;34.20
16956;BMP180;8594;52.052;8.354;2022-08-14T12:18:06;99999.00;;;34.20
16956;BMP180;8594;52.052;8.354;2022-08-14T12:20:37;99998.00;;;34.30
16956;BMP180;8594;52.052;8.354;2022-08-14T12:23:20;99988.00;;;34.10
16956;BMP180;8594;52.052;8.354;2022-08-14T12:25:48;99980.00;;;34.80
16956;BMP180;8594;52.052;8.354;2022-08-14T12:28:15;99984.00;;;34.50
16956;BMP180;8594;52.052;8.354;2022-08-14T12:30:44;99971.00;;;34.70
16956;BMP180;8594;52.052;8.354;2022-08-14T12:33:24;99965.00;;;34.30
16956;BMP180;8594;52.052;8.354;2022-08-14T12:35:54;99972.00;;;34.30
16956;BMP180;8594;52.052;8.354;2022-08-14T12:38:33;99965.00;;;34.00
16956;BMP180;8594;52.052;8.354;2022-08-14T12:41:02;99964.00;;;33.80
16956;BMP180;8594;52.052;8.354;2022-08-14T12:43:31;99962.00;;;33.60
16956;BMP180;8594;52.052;8.354;2022-08-14T12:45:59;99953.00;;;33.60
16956;BMP180;8594;52.052;8.354;2022-08-14T12:48:26;99950.00;;;33.70
16956;BMP180;8594;52.052;8.354;2022-08-14T12:50:55;99950.00;;;33.70
16956;BMP180;8594;52.052;8.354;2022-08-14T12:53:34;99946.00;;;34.30
16956;BMP180;8594;52.052;8.354;2022-08-14T12:56:02;99945.00;;;34.60
16956;BMP180;8594;52.052;8.354;2022-08-14T12:58:32;99953.00;;;34.50
16956;BMP180;8594;52.052;8.354;2022-08-14T13:01:00;99953.00;;;34.60
16956;BMP180;8594;52.052;8.354;2022-08-14T13:03:28;99947.00;;;34.60
16956;BMP180;8594;52.052;8.354;2022-08-14T13:05:56;99938.00;;;34.30
16956;BMP180;8594;52.052;8.354;2022-08-14T13:08:24;99943.00;;;34.60
16956;BMP180;8594;52.052;8.354;2022-08-14T13:10:53;99946.00;;;34.40
16956;BMP180;8594;52.052;8.354;2022-08-14T13:13:23;99946.00;;;34.30
16956;BMP180;8594;52.052;8.354;2022-08-14T13:15:53;99951.00;;;34.80
16956;BMP180;8594;52.052;8.354;2022-08-14T13:18:22;99940.00;;;35.10
16956;BMP180;8594;52.052;8.354;2022-08-14T13:20:51;99937.00;;;35.60
16956;BMP180;8594;52.052;8.354;2022-08-14T13:23:21;99936.00;;;35.40
16956;BMP180;8594;52.052;8.354;2022-08-14T13:25:51;99938.00;;;34.60
16956;BMP180;8594;52.052;8.354;2022-08-14T13:28:18;99933.00;;;35.00
16956;BMP180;8594;52.052;8.354;2022-08-14T13:30:46;99928.00;;;35.10
16956;BMP180;8594;52.052;8.354;2022-08-14T13:33:15;99928.00;;;34.40
16956;BMP180;8594;52.052;8.354;2022-08-14T13:35:48;99920.00;;;34.60
16956;BMP180;8594;52.052;8.354;2022-08-14T13:38:20;99913.00;;;35.30
16956;BMP180;8594;52.052;8.354;2022-08-14T13:40:48;99900.00;;;35.50
16956;BMP180;8594;52.052;8.354;2022-08-14T13:43:20;99888.00;;;35.50
16956;BMP180;8594;52.052;8.354;2022-08-14T13:45:48;99892.00;;;35.70
16956;BMP180;8594;52.052;8.354;2022-08-14T13:48:15;99891.00;;;35.60
16956;BMP180;8594;52.052;8.354;2022-08-14T13:50:44;99881.00;;;36.10
16956;BMP180;8594;52.052;8.354;2022-08-14T13:53:15;99880.00;;;35.80
16956;BMP180;8594;52.052;8.354;2022-08-14T13:55:46;99875.00;;;35.40
16956;BMP180;8594;52.052;8.354;2022-08-14T13:58:14;99876.00;;;35.60
16956;BMP180;8594;52.052;8.354;2022-08-14T14:00:41;99877.00;;;35.60
16956;BMP180;8594;52.052;8.354;2022-08-14T14:03:10;99868.00;;;35.70
16956;BMP180;8594;52.052;8.354;2022-08-14T14:05:37;99857.00;;;36.00
16956;BMP180;8594;52.052;8.354;2022-08-14T14:08:05;99873.00;;;35.90
16956;BMP180;8594;52.052;8.354;2022-08-14T14:10:35;99866.00;;;35.80
16956;BMP180;8594;52.052;8.354;2022-08-14T14:13:04;99857.00;;;35.80
16956;BMP180;8594;52.052;8.354;2022-08-14T14:15:32;99852.00;;;35.70
16956;BMP180;8594;52.052;8.354;2022-08-14T14:18:03;99851.00;;;36.10
16956;BMP180;8594;52.052;8.354;2022-08-14T14:20:30;99852.00;;;35.80
16956;BMP180;8594;52.052;8.354;2022-08-14T14:22:56;99844.00;;;36.20
16956;BMP180;8594;52.052;8.354;2022-08-14T14:25:23;99837.00;;;35.60
16956;BMP180;8594;52.052;8.354;2022-08-14T14:27:50;99835.00;;;35.30
16956;BMP180;8594;52.052;8.354;2022-08-14T14:30:19;99832.00;;;35.00
16956;BMP180;8594;52.052;8.354;2022-08-14T14:32:48;99821.00;;;35.00